AirNav   Everest Fuels
 
 351 users online  

PS10 Ohioport Heliport
Ohiopyle, Pennsylvania, USA

GOING TO OHIOPYLE?


FAA INFORMATION EFFECTIVE 18 JUNE 2020

Location

FAA Identifier: PS10
Lat/Long: 39-53-07.2700N 079-30-27.1390W
39-53.121167N 079-30.452317W
39.8853528,-79.5075386
(estimated)
Elevation: 2018 ft. / 615 m (estimated)
Variation: 08W (1985)
From city: 1 mile SW of OHIOPYLE, PA
Time zone: UTC -4 (UTC -5 during Standard Time)
Zip code: 15470

Heliport Operations

Heliport use: Private use. Permission required prior to landing
Activation date: 04/1983
Control tower: no
ARTCC: CLEVELAND CENTER
FSS: ALTOONA FLIGHT SERVICE STATION
Attendance: APR-MAY 0900-1900
Wind indicator: yes
Segmented circle: no

Heliport Communications

WX AWOS-3 at VVS (8 nm NW): 133.325 (724-626-8745)
WX AWOS-3 at 2G4 (20 nm SE): 120.125 (301-746-8443)

Nearby radio navigation aids

VOR radial/distance  VOR name  Freq  Var
IHDr238/8.7INDIAN HEAD VORTAC108.2006W
MGWr045/25.6MORGANTOWN VOR/DME111.6005W
AGCr143/34.0ALLEGHENY VOR/DME110.0009W

 
NDB name  Hdg/Dist  Freq  Var  ID
CAMOR097/10.929908WVV ...- ...-
STOYSTOWN256/29.720910WSYS ... -.-- ...

Heliport Services

Runway Information

Helipad H1

Dimensions: 45 x 45 ft. / 14 x 14 m
Surface: asphalt, in fair condition
Operational restrictions: NO APP/DEP PATH FROM 5 TO 45 DEGREES.
Latitude: 39-53.121167N
Longitude: 079-30.452317W
Elevation: 2018.0 ft.
Traffic pattern: leftleft
Markings: none, in fair condition

Heliport Ownership and Management from official FAA records

Ownership: Privately-owned
Owner: PA DCNR, BUREAU OF FORESTRY
P.O. BOX 8552
HARRISBURG, PA 17105-8552
Phone (717) 787-5077
Manager: JASON WILLIAMS
P.O. BOX 8552
HARRISBURG, PA 17105-8552
Phone 717-787-5077

Heliport Operational Statistics

Aircraft based on the field: 1
Helicopters: 1
    

Additional Remarks

A52-H1 30' BLDG NORTH; 50' ANTENNA 150' NORTH.
FOR CD CTC JOHNSTOWN APCH AT 814-532-5960, WHEN APCH CLSD CTC CLEVELAND ARTCC AT 440-774-0234.

Instrument Procedures

There are no published instrument procedures at PS10.

Some nearby airports with instrument procedures:

KVVS - Joseph A Hardy Connellsville Airport (8 nm NW)
2G4 - Garrett County Airport (20 nm SE)
KLBE - Arnold Palmer Regional Airport (24 nm N)
KMGW - Morgantown Municipal Airport-Walter L. Bill Hart Field (24 nm SW)
2G9 - Somerset County Airport (24 nm E)
 
Loc | Ops | Rwys | IFR | FBO | Links
Com | Nav | Svcs | Stats | Notes
Area around PS10 (Ohioport Heliport)
 
Road maps at: MapQuest Bing Google
 
Aerial photo
No photo
 
Sectional chart

 
Airport distance calculator
Flying to Ohioport Heliport? Find the distance to fly.

From to PS10

Sunrise and sunset
Times for 09-Jul-2020
 Local
(UTC-4)
 Zulu
(UTC)
Morning civil twilight05:2709:27
Sunrise05:5909:59
Sunset20:4700:47
Evening civil twilight21:1901:19

Current date and time
Zulu (UTC)  09-Jul-2020 06:59:03
Local (UTC-4)  09-Jul-2020 02:59:03
 
METAR
K2G4 
20nm SE 
090655Z AUTO 14004KT 10SM CLR 19/17 A3005 RMK AO1
KLBE 
23nm N 
090655Z AUTO 00000KT 10SM CLR 21/21 A2995 RMK AO2
KMGW 
24nm SW 
090653Z AUTO 00000KT 10SM CLR 23/19 A2996 RMK AO2 SLP131 T02280189
K2G9 
24nm E 
090635Z AUTO 00000KT 10SM CLR 17/17 A3003 RMK AO2
KP53 
24nm NW 
090556Z AUTO 19006KT 24/20 A2980 RMK AO1 SLP088 T02440200 10278 20239 58011
KAGC 
34nm NW 
090653Z 17006KT 10SM CLR 23/19 A2993 RMK AO2 SLP127 T02330194
KAFJ 
38nm W 
090556Z AUTO 00000KT 10SM CLR 22/21 A2997 RMK AO2 SLP138 6//// T02220211 10300 20211 58008
KCBE 
38nm SE 
090655Z AUTO 00000KT 10SM CLR 20/20 A3000 RMK AO2 T02030198
TAF
KLBE 
23nm N 
090520Z 0906/1006 00000KT P6SM SKC FM091400 16005KT P6SM SCT060
KMGW 
24nm SW 
090520Z 0906/1006 00000KT P6SM SKC TEMPO 0909/0912 3SM BR FM091600 11004KT P6SM SCT060
NOTAMs
Click for the latest NOTAMs
NOTAMs are issued by the DoD/FAA and will open in a separate window not controlled by AirNav.

 

 
 

Would you like to see your business listed on this page?

 If your business provides an interesting product or service to pilots, flight crews, aircraft, or users of the Ohioport Heliport, you should consider listing it here.  To start the listing process, click on the button below
 
Add a business
 

Other Pages about Ohioport Heliport

Update a link
 
Copyright © AirNav, LLC. All rights reserved. Privacy Policy  Contact